Time;durP1;ratioP1;P1;durP2;ratioP2;P2;SDS_P1;SDS_P2;PMS_P1;PMS_P2;Temp;Humidity;BMP_temperature;BMP_pressure;BME280_temperature;BME280_humidity;BME280_pressure;Samples;Min_cycle;Max_cycle;Signal;HPM_P1;HPM_P2
2022/03/19 00:01:06;;;;;;;43.07;20.60;;;;;;;-0.62;100.00;103570.69;5053216;28;21339;-75
2022/03/19 00:03:33;;;;;;;43.60;20.53;;;;;;;-0.61;100.00;103572.50;5049907;28;20240;-74
2022/03/19 00:06:00;;;;;;;47.90;21.60;;;;;;;-0.55;100.00;103573.69;5069139;28;20195;-74
2022/03/19 00:08:26;;;;;;;46.97;21.07;;;;;;;-0.52;100.00;103576.47;5067105;28;20211;-75
2022/03/19 00:10:53;;;;;;;44.80;19.80;;;;;;;-0.43;100.00;103584.75;5050471;28;20207;-75
2022/03/19 00:13:20;;;;;;;40.27;20.17;;;;;;;-0.32;100.00;103578.66;5066586;28;20213;-75
2022/03/19 00:15:46;;;;;;;50.83;20.10;;;;;;;-0.17;100.00;103583.03;5049353;28;20210;-75
2022/03/19 00:18:13;;;;;;;48.03;20.50;;;;;;;-0.11;100.00;103580.84;5065277;28;20268;-75
2022/03/19 00:20:41;;;;;;;39.53;18.70;;;;;;;-0.01;100.00;103578.97;5067056;28;20202;-75
2022/03/19 00:23:08;;;;;;;43.50;18.17;;;;;;;0.18;100.00;103581.06;5084323;28;20701;-75
2022/03/19 00:25:34;;;;;;;35.93;16.27;;;;;;;0.30;100.00;103574.91;5067846;28;20616;-75
2022/03/19 00:28:02;;;;;;;38.20;16.80;;;;;;;0.44;100.00;103578.34;5051229;28;20247;-75
2022/03/19 00:30:29;;;;;;;36.43;15.80;;;;;;;0.66;100.00;103573.75;5049942;28;20190;-75
2022/03/19 00:32:56;;;;;;;36.37;16.13;;;;;;;0.74;100.00;103567.44;5062905;28;20198;-75
2022/03/19 00:35:22;;;;;;;31.80;14.37;;;;;;;0.82;100.00;103572.16;5069755;28;20677;-75
2022/03/19 00:37:53;;;;;;;31.40;14.90;;;;;;;0.90;100.00;103570.94;5064903;28;20200;-75
2022/03/19 00:40:21;;;;;;;29.60;13.97;;;;;;;1.00;100.00;103569.78;5068449;28;20281;-75
2022/03/19 00:42:49;;;;;;;32.80;14.23;;;;;;;1.16;100.00;103566.47;5064415;28;20195;-75
2022/03/19 00:45:16;;;;;;;29.40;13.30;;;;;;;1.23;100.00;103566.03;5050405;28;20199;-75
2022/03/19 00:47:42;;;;;;;26.50;12.27;;;;;;;1.28;100.00;103568.06;5076533;28;20693;-75
2022/03/19 00:50:09;;;;;;;29.27;12.77;;;;;;;1.36;100.00;103562.53;5056043;28;20278;-75
2022/03/19 00:52:36;;;;;;;29.03;12.53;;;;;;;1.42;100.00;103571.44;5061857;28;20700;-75
2022/03/19 00:55:04;;;;;;;26.07;11.30;;;;;;;1.50;100.00;103565.09;5064472;28;20218;-75
2022/03/19 00:57:38;;;;;;;24.03;10.70;;;;;;;1.61;100.00;103560.56;5043559;28;20609;-74
2022/03/19 01:00:07;;;;;;;19.60;10.57;;;;;;;1.66;100.00;103568.56;5082479;28;20568;-76
2022/03/19 01:02:33;;;;;;;20.17;9.40;;;;;;;1.70;100.00;103560.19;5049457;28;20213;-77
2022/03/19 01:05:00;;;;;;;19.90;9.50;;;;;;;1.76;100.00;103562.22;5072712;28;20227;-76
2022/03/19 01:07:26;;;;;;;21.27;9.70;;;;;;;1.78;100.00;103563.22;5075160;28;20211;-76
2022/03/19 01:09:52;;;;;;;18.97;9.23;;;;;;;1.81;100.00;103560.81;5075739;28;20210;-76
2022/03/19 01:12:20;;;;;;;18.40;9.07;;;;;;;1.83;100.00;103564.34;5068451;28;20198;-76
2022/03/19 01:14:46;;;;;;;20.10;8.60;;;;;;;1.83;100.00;103556.63;5048475;28;20207;-76
2022/03/19 01:17:13;;;;;;;16.47;8.43;;;;;;;1.81;100.00;103561.72;5063795;28;20210;-76
2022/03/19 01:22:21;;;;;;;18.13;7.60;;;;;;;1.67;100.00;103554.88;5060683;28;20210;-76
2022/03/19 01:24:47;;;;;;;15.33;8.37;;;;;;;1.64;100.00;103557.28;5067329;28;20297;-76
2022/03/19 01:27:14;;;;;;;12.60;8.13;;;;;;;1.60;100.00;103556.22;5064548;28;20210;-76
2022/03/19 01:29:42;;;;;;;17.40;8.73;;;;;;;1.58;100.00;103554.34;5064574;28;20213;-76
2022/03/19 01:32:09;;;;;;;16.73;8.00;;;;;;;1.54;100.00;103562.69;5047487;28;20260;-75
2022/03/19 01:34:36;;;;;;;18.07;8.63;;;;;;;1.52;100.00;103560.03;5066752;28;20198;-76
2022/03/19 01:37:03;;;;;;;15.17;7.97;;;;;;;1.46;100.00;103554.53;5063620;28;20249;-75
2022/03/19 01:39:29;;;;;;;12.93;7.97;;;;;;;1.43;100.00;103556.94;5065323;28;20287;-76
2022/03/19 01:41:56;;;;;;;14.83;7.97;;;;;;;1.37;100.00;103549.72;5063433;28;20198;-76
2022/03/19 01:44:23;;;;;;;16.23;7.97;;;;;;;1.39;100.00;103549.81;5068899;28;20205;-75
2022/03/19 01:47:02;;;;;;;17.03;8.50;;;;;;;1.35;100.00;103545.31;5063418;28;20214;-76
2022/03/19 01:49:30;;;;;;;17.43;8.50;;;;;;;1.35;100.00;103546.19;5063876;28;20218;-76
2022/03/19 01:51:57;;;;;;;14.30;8.27;;;;;;;1.31;100.00;103541.66;5064284;28;20697;-76
2022/03/19 01:54:26;;;;;;;16.67;9.30;;;;;;;1.32;100.00;103533.19;5051382;28;20194;-76
2022/03/19 01:56:54;;;;;;;14.50;8.33;;;;;;;1.28;100.00;103528.63;5060734;28;20214;-73
2022/03/19 01:59:23;;;;;;;15.27;8.20;;;;;;;1.25;100.00;103525.88;5051351;28;20282;-73
2022/03/19 02:01:51;;;;;;;15.80;8.47;;;;;;;1.19;100.00;103522.97;5064858;28;20691;-74
2022/03/19 02:04:19;;;;;;;18.53;8.10;;;;;;;1.12;100.00;103526.84;5066985;28;20574;-74
2022/03/19 02:06:46;;;;;;;15.00;8.00;;;;;;;1.05;100.00;103519.56;5066209;28;20197;-73
2022/03/19 02:09:13;;;;;;;13.30;7.50;;;;;;;1.05;100.00;103511.84;5064810;28;20671;-74
2022/03/19 02:11:40;;;;;;;14.30;7.47;;;;;;;1.04;100.00;103515.22;5061224;28;20199;-74
2022/03/19 02:14:06;;;;;;;16.67;7.70;;;;;;;0.97;100.00;103513.06;5068819;28;20584;-73
2022/03/19 02:16:33;;;;;;;19.40;8.43;;;;;;;0.78;100.00;103512.00;5062956;28;20214;-74
2022/03/19 02:19:00;;;;;;;14.10;7.60;;;;;;;0.72;100.00;103509.94;5063689;28;20214;-73
2022/03/19 02:21:27;;;;;;;15.43;7.40;;;;;;;0.60;100.00;103522.03;5060099;28;20202;-73
2022/03/19 02:26:43;;;;;;;16.87;7.60;;;;;;;0.51;100.00;103509.53;5029430;28;20688;-73
2022/03/19 02:29:09;;;;;;;21.87;7.13;;;;;;;0.47;100.00;103511.81;5064641;28;20216;-73
2022/03/19 02:31:39;;;;;;;13.47;7.23;;;;;;;0.31;100.00;103518.53;5065133;28;20210;-73
2022/03/19 02:34:08;;;;;;;15.63;7.77;;;;;;;0.29;100.00;103511.56;5063911;28;20200;-73
2022/03/19 02:36:35;;;;;;;18.50;7.60;;;;;;;0.27;100.00;103510.56;5063757;28;20202;-74
2022/03/19 02:39:09;;;;;;;17.83;7.33;;;;;;;0.28;100.00;103513.25;5063287;28;20210;-74
2022/03/19 02:41:36;;;;;;;16.57;7.63;;;;;;;0.26;100.00;103512.22;5064600;28;20268;-74
2022/03/19 02:44:02;;;;;;;14.73;7.17;;;;;;;0.26;100.00;103504.53;5065167;28;20653;-74
2022/03/19 02:50:16;;;;;;;15.80;6.57;;;;;;;0.18;100.00;103509.19;5064573;28;20194;-74
2022/03/19 02:52:42;;;;;;;20.87;7.60;;;;;;;0.14;100.00;103503.75;5048309;28;20208;-74
2022/03/19 02:55:11;;;;;;;20.60;7.50;;;;;;;0.11;100.00;103504.47;5065410;28;20205;-74
2022/03/19 02:57:37;;;;;;;18.87;7.10;;;;;;;0.12;100.00;103497.66;5065088;28;20204;-74
2022/03/19 03:00:05;;;;;;;14.33;6.47;;;;;;;0.10;100.00;103494.13;5066249;28;20248;-74
2022/03/19 03:02:31;;;;;;;15.37;7.50;;;;;;;0.06;100.00;103495.59;5048521;28;20211;-74
2022/03/19 03:04:58;;;;;;;17.23;7.03;;;;;;;0.09;100.00;103489.75;5065813;28;20230;-74
2022/03/19 03:07:24;;;;;;;18.43;6.87;;;;;;;-0.01;100.00;103490.88;5069809;28;20208;-74
2022/03/19 03:09:50;;;;;;;15.83;6.77;;;;;;;-0.07;100.00;103488.81;5072293;28;20242;-74
2022/03/19 03:12:18;;;;;;;19.27;6.60;;;;;;;-0.13;100.00;103480.72;5068644;28;20209;-74
2022/03/19 03:14:45;;;;;;;12.17;5.60;;;;;;;-0.09;100.00;103476.66;5069147;28;20733;-74
2022/03/19 03:17:11;;;;;;;16.23;6.27;;;;;;;-0.24;100.00;103485.16;5068266;28;20229;-74
2022/03/19 03:19:38;;;;;;;21.57;6.50;;;;;;;-0.30;100.00;103484.78;5071375;28;20238;-74
2022/03/19 03:22:04;;;;;;;16.33;6.70;;;;;;;-0.45;100.00;103479.53;5050019;28;20697;-74
2022/03/19 03:24:31;;;;;;;17.83;6.43;;;;;;;-0.44;100.00;103478.78;5068941;28;20198;-74
2022/03/19 03:26:57;;;;;;;14.10;6.63;;;;;;;-0.43;100.00;103474.53;5068928;28;20202;-74
2022/03/19 03:29:25;;;;;;;11.73;6.00;;;;;;;-0.46;100.00;103474.31;5065607;28;20422;-74
2022/03/19 03:31:52;;;;;;;20.17;6.97;;;;;;;-0.56;100.00;103485.66;5066835;28;20202;-74
2022/03/19 03:34:19;;;;;;;13.97;7.17;;;;;;;-0.49;100.00;103474.09;5075855;28;20198;-74
2022/03/19 03:36:45;;;;;;;22.30;6.90;;;;;;;-0.50;100.00;103480.91;5067315;28;20203;-74
2022/03/19 03:39:11;;;;;;;14.17;6.70;;;;;;;-0.64;100.00;103487.69;5070992;28;20281;-74
2022/03/19 03:41:38;;;;;;;18.43;6.67;;;;;;;-0.67;100.00;103479.84;5051882;28;20216;-75
2022/03/19 03:44:05;;;;;;;20.17;6.90;;;;;;;-0.68;100.00;103477.16;5045486;28;20198;-74
2022/03/19 03:46:32;;;;;;;19.53;6.70;;;;;;;-0.69;100.00;103483.94;5070579;28;20233;-74
2022/03/19 03:48:59;;;;;;;21.40;7.27;;;;;;;-0.73;100.00;103484.53;5066178;28;20224;-74
2022/03/19 03:51:25;;;;;;;19.03;7.50;;;;;;;-0.77;100.00;103485.13;5069899;28;20207;-74
2022/03/19 03:53:52;;;;;;;17.00;6.93;;;;;;;-0.80;100.00;103479.81;5050541;28;20324;-74
2022/03/19 03:56:18;;;;;;;22.13;6.97;;;;;;;-0.76;100.00;103489.47;5068086;28;20552;-74
2022/03/19 03:58:45;;;;;;;20.60;6.40;;;;;;;-0.77;100.00;103483.47;5069200;28;20221;-74
2022/03/19 04:01:12;;;;;;;20.37;7.13;;;;;;;-0.83;100.00;103490.72;5065095;28;20203;-74
2022/03/19 04:03:40;;;;;;;20.37;7.50;;;;;;;-0.91;100.00;103484.22;5063678;28;20194;-74
2022/03/19 04:06:06;;;;;;;20.73;6.97;;;;;;;-0.94;100.00;103481.44;5067420;28;20661;-74
2022/03/19 04:08:33;;;;;;;16.50;7.57;;;;;;;-0.98;100.00;103488.03;5069464;28;20694;-74
2022/03/19 04:10:59;;;;;;;15.83;7.10;;;;;;;-0.96;100.00;103485.59;5068827;28;20203;-74
2022/03/19 04:13:26;;;;;;;19.23;7.60;;;;;;;-0.97;100.00;103476.09;5068549;28;20201;-74
2022/03/19 04:15:52;;;;;;;17.53;7.37;;;;;;;-0.91;100.00;103478.22;5067296;28;20209;-74
2022/03/19 04:18:19;;;;;;;17.50;7.67;;;;;;;-0.93;100.00;103477.19;5067495;28;20794;-74
2022/03/19 04:20:47;;;;;;;21.70;7.87;;;;;;;-0.92;100.00;103485.00;5050748;28;20218;-74
2022/03/19 04:23:13;;;;;;;19.20;7.63;;;;;;;-0.94;100.00;103478.00;5054531;28;20202;-74
2022/03/19 04:25:40;;;;;;;18.00;7.50;;;;;;;-0.90;100.00;103467.16;5052844;28;20667;-74
2022/03/19 04:28:07;;;;;;;16.80;8.30;;;;;;;-0.91;100.00;103476.53;5055066;28;20230;-74
2022/03/19 04:30:33;;;;;;;27.07;9.13;;;;;;;-0.98;100.00;103469.22;5068145;28;20327;-74
2022/03/19 04:33:01;;;;;;;22.93;9.10;;;;;;;-0.98;100.00;103466.66;5066002;28;20557;-74
2022/03/19 04:38:17;;;;;;;26.53;8.37;;;;;;;-1.01;100.00;103463.91;5070320;28;20226;-74
2022/03/19 04:40:45;;;;;;;27.23;9.00;;;;;;;-1.04;100.00;103473.94;5069250;28;20207;-74
2022/03/19 04:43:12;;;;;;;20.47;8.07;;;;;;;-1.07;100.00;103466.94;5068680;28;20190;-74
2022/03/19 04:45:41;;;;;;;24.00;9.07;;;;;;;-1.11;100.00;103464.94;5066502;28;20198;-74
2022/03/19 04:48:08;;;;;;;22.10;8.63;;;;;;;-1.08;100.00;103472.84;5071814;28;20222;-74
2022/03/19 04:50:37;;;;;;;23.60;8.73;;;;;;;-1.12;100.00;103475.09;5064020;28;20274;-74
2022/03/19 04:53:05;;;;;;;20.10;8.37;;;;;;;-1.16;100.00;103467.22;5066215;28;20203;-74
2022/03/19 04:55:32;;;;;;;29.10;9.13;;;;;;;-1.17;100.00;103475.66;5065020;28;20203;-74
2022/03/19 04:57:59;;;;;;;24.73;8.43;;;;;;;-1.17;100.00;103472.22;5066365;28;20211;-74
2022/03/19 05:00:25;;;;;;;28.43;9.23;;;;;;;-1.20;100.00;103470.31;5065101;28;20219;-74
2022/03/19 05:02:52;;;;;;;24.70;8.83;;;;;;;-1.22;100.00;103477.03;5064463;28;20199;-74
2022/03/19 05:05:18;;;;;;;24.17;8.60;;;;;;;-1.21;100.00;103471.13;5045719;28;20301;-74
2022/03/19 05:07:45;;;;;;;19.73;8.93;;;;;;;-1.20;100.00;103472.00;5071825;28;20670;-74
2022/03/19 05:12:57;;;;;;;23.20;8.47;;;;;;;-1.23;100.00;103475.25;5065816;28;20228;-74
2022/03/19 05:15:24;;;;;;;23.33;9.60;;;;;;;-1.27;100.00;103477.50;5066044;28;20195;-74
2022/03/19 05:17:50;;;;;;;21.70;8.90;;;;;;;-1.29;100.00;103467.16;5049104;28;20199;-74
2022/03/19 05:20:18;;;;;;;25.10;9.57;;;;;;;-1.33;100.00;103471.19;5064841;28;20225;-74
2022/03/19 05:22:44;;;;;;;24.93;8.73;;;;;;;-1.33;100.00;103473.72;5066031;28;20207;-74
2022/03/19 05:25:10;;;;;;;24.37;9.13;;;;;;;-1.35;100.00;103477.88;5063508;28;20207;-74
2022/03/19 05:27:37;;;;;;;26.17;9.97;;;;;;;-1.36;100.00;103482.88;5057140;28;20846;-74
2022/03/19 05:30:08;;;;;;;25.77;9.53;;;;;;;-1.38;100.00;103480.22;5066935;28;20226;-74
2022/03/19 05:32:34;;;;;;;22.57;9.53;;;;;;;-1.38;100.00;103466.53;5073222;28;20209;-74
2022/03/19 05:35:02;;;;;;;23.07;9.20;;;;;;;-1.35;100.00;103475.31;5047569;28;20209;-74
2022/03/19 05:37:29;;;;;;;25.70;9.40;;;;;;;-1.33;100.00;103473.72;5050840;28;20201;-74
2022/03/19 05:39:56;;;;;;;27.53;9.97;;;;;;;-1.32;100.00;103474.63;5063443;28;20215;-74
2022/03/19 05:42:22;;;;;;;31.93;9.80;;;;;;;-1.31;100.00;103481.53;5067016;28;20556;-74
2022/03/19 05:44:49;;;;;;;26.73;9.53;;;;;;;-1.30;100.00;103473.06;5052937;28;20529;-74
2022/03/19 05:47:17;;;;;;;23.13;9.37;;;;;;;-1.28;100.00;103478.31;5065923;28;20203;-74
2022/03/19 05:49:44;;;;;;;26.87;10.47;;;;;;;-1.28;100.00;103476.63;5064240;28;20227;-74
2022/03/19 05:52:10;;;;;;;26.23;10.30;;;;;;;-1.26;100.00;103481.84;5066249;28;20676;-74
2022/03/19 05:54:36;;;;;;;32.57;10.63;;;;;;;-1.26;100.00;103471.59;5065704;28;20195;-74
2022/03/19 05:57:03;;;;;;;33.20;10.63;;;;;;;-1.22;100.00;103478.69;5063134;28;20206;-74
2022/03/19 05:59:30;;;;;;;36.77;12.27;;;;;;;-1.18;100.00;103484.16;5068788;28;20697;-74
2022/03/19 06:01:56;;;;;;;43.43;16.03;;;;;;;-1.17;100.00;103479.91;5070033;28;20687;-74
2022/03/19 06:04:24;;;;;;;33.47;14.13;;;;;;;-1.17;100.00;103474.78;5071735;28;20199;-74
2022/03/19 06:06:51;;;;;;;29.30;12.53;;;;;;;-1.16;100.00;103474.88;5067157;28;20191;-74
2022/03/19 06:09:17;;;;;;;30.80;13.50;;;;;;;-1.10;100.00;103476.97;5066356;28;20233;-74
2022/03/19 06:11:45;;;;;;;29.07;13.10;;;;;;;-1.04;100.00;103474.84;5065145;28;20198;-74
2022/03/19 06:14:12;;;;;;;30.60;11.40;;;;;;;-0.99;100.00;103472.56;5060081;28;20597;-74
2022/03/19 06:16:38;;;;;;;30.87;11.40;;;;;;;-0.92;100.00;103472.19;5067178;28;20234;-74
2022/03/19 06:19:04;;;;;;;32.17;11.10;;;;;;;-0.88;100.00;103473.28;5081234;28;20230;-74
2022/03/19 06:21:32;;;;;;;23.57;10.70;;;;;;;-0.85;100.00;103466.69;5045589;28;20225;-74
2022/03/19 06:23:59;;;;;;;34.77;11.70;;;;;;;-0.82;100.00;103463.44;5066312;28;20198;-74
2022/03/19 06:26:25;;;;;;;30.87;10.77;;;;;;;-0.76;100.00;103466.41;5049327;28;20230;-74
2022/03/19 06:28:52;;;;;;;28.73;10.50;;;;;;;-0.69;100.00;103475.38;5072534;28;20218;-74
2022/03/19 06:31:19;;;;;;;31.93;11.63;;;;;;;-0.62;100.00;103482.69;5046536;28;20553;-74
2022/03/19 06:33:45;;;;;;;30.40;12.20;;;;;;;-0.54;100.00;103491.78;5065584;28;20229;-74
2022/03/19 06:38:58;;;;;;;32.10;12.83;;;;;;;-0.33;100.00;103491.41;5047679;28;20241;-74
2022/03/19 06:41:25;;;;;;;46.20;12.53;;;;;;;-0.17;100.00;103498.41;5064683;28;20218;-74
2022/03/19 06:43:52;;;;;;;31.87;12.23;;;;;;;-0.11;100.00;103488.50;5063474;28;20225;-74
2022/03/19 06:46:19;;;;;;;36.47;13.13;;;;;;;0.00;100.00;103482.41;5065468;28;20198;-74
2022/03/19 06:48:46;;;;;;;40.20;14.43;;;;;;;0.09;100.00;103479.50;5070112;28;20218;-74
2022/03/19 06:51:13;;;;;;;37.13;14.10;;;;;;;0.19;100.00;103486.97;5059575;28;20222;-74
2022/03/19 06:53:40;;;;;;;44.93;14.27;;;;;;;0.28;100.00;103486.66;5064322;28;20195;-74
2022/03/19 06:56:08;;;;;;;48.37;15.23;;;;;;;0.36;100.00;103481.22;5063911;28;20210;-74
2022/03/19 06:58:36;;;;;;;39.27;14.33;;;;;;;0.49;100.00;103474.25;5064953;28;20214;-74
2022/03/19 07:01:03;;;;;;;48.70;15.23;;;;;;;0.59;100.00;103481.75;5064501;28;20700;-74
2022/03/19 07:03:30;;;;;;;50.00;15.27;;;;;;;0.66;100.00;103488.13;5064640;28;20633;-74
2022/03/19 07:05:56;;;;;;;58.83;16.43;;;;;;;0.73;100.00;103485.13;5061197;28;20202;-74
2022/03/19 07:08:23;;;;;;;47.30;16.23;;;;;;;0.85;100.00;103485.00;5062134;28;20230;-74
2022/03/19 07:10:50;;;;;;;45.40;14.70;;;;;;;0.93;100.00;103491.44;5059742;28;20202;-74
2022/03/19 07:13:18;;;;;;;61.17;16.87;;;;;;;1.03;100.00;103485.19;5042434;28;20229;-74
2022/03/19 07:15:44;;;;;;;49.10;15.77;;;;;;;1.09;100.00;103489.00;5061329;28;20573;-75
2022/03/19 07:18:11;;;;;;;46.03;15.00;;;;;;;1.23;100.00;103487.25;5047465;28;20238;-74
2022/03/19 07:20:37;;;;;;;45.13;17.17;;;;;;;1.35;100.00;103489.63;5045228;28;20209;-74
2022/03/19 07:23:05;;;;;;;45.80;15.17;;;;;;;1.42;100.00;103485.72;5066806;28;20208;-74
2022/03/19 07:25:33;;;;;;;49.70;15.43;;;;;;;1.47;100.00;103482.63;5046370;28;20214;-74
2022/03/19 07:28:02;;;;;;;43.83;15.30;;;;;;;1.58;100.00;103483.22;5061149;28;20504;-74
2022/03/19 07:30:31;;;;;;;46.93;14.97;;;;;;;1.65;100.00;103477.66;5077533;28;20226;-74
2022/03/19 07:32:57;;;;;;;39.03;14.93;;;;;;;1.67;100.00;103491.47;5042841;28;20217;-74
2022/03/19 07:35:24;;;;;;;35.40;14.50;;;;;;;1.74;100.00;103489.22;5061940;28;20598;-75
2022/03/19 07:37:50;;;;;;;32.10;13.17;;;;;;;1.82;100.00;103490.56;5062889;28;20189;-74
2022/03/19 07:41:45;;;;;;;34.00;13.47;;;;;;;1.88;100.00;103494.38;5057380;28;20218;-75
2022/03/19 07:43:05;;;;;;;28.97;12.47;;;;;;;1.98;100.00;103490.59;5057660;28;20243;-74
2022/03/19 07:45:33;;;;;;;29.33;12.07;;;;;;;2.12;100.00;103490.47;5061125;28;20597;-74
2022/03/19 07:48:00;;;;;;;28.77;11.40;;;;;;;2.25;100.00;103493.81;5061807;28;20228;-74
2022/03/19 07:50:27;;;;;;;25.30;10.67;;;;;;;2.40;100.00;103500.56;5059095;28;20693;-75
2022/03/19 07:52:54;;;;;;;28.33;10.97;;;;;;;2.48;100.00;103501.88;5079113;28;21727;-74
2022/03/19 07:55:20;;;;;;;23.27;10.43;;;;;;;2.51;100.00;103494.28;5065275;28;20225;-74
2022/03/19 07:57:46;;;;;;;21.53;9.90;;;;;;;2.50;100.00;103494.22;5071156;28;20198;-74
2022/03/19 08:00:14;;;;;;;23.03;10.77;;;;;;;2.53;100.00;103497.81;5065574;28;20214;-74
2022/03/19 08:02:46;;;;;;;22.63;9.97;;;;;;;2.65;100.00;103495.03;5061826;28;20244;-74
2022/03/19 08:05:13;;;;;;;18.07;9.10;;;;;;;2.81;100.00;103492.47;5063184;28;20197;-75
2022/03/19 08:07:40;;;;;;;22.17;10.43;;;;;;;2.97;100.00;103478.66;5066955;28;20199;-74
2022/03/19 08:10:07;;;;;;;22.43;9.47;;;;;;;3.22;100.00;103479.91;5062892;28;20213;-74
2022/03/19 08:12:34;;;;;;;23.30;9.87;;;;;;;3.29;100.00;103479.38;5062918;28;20667;-74
2022/03/19 08:15:03;;;;;;;21.80;9.60;;;;;;;3.39;100.00;103484.19;5047966;28;20230;-74
2022/03/19 08:17:31;;;;;;;20.50;9.40;;;;;;;3.58;100.00;103488.53;5063057;28;20210;-74
2022/03/19 08:20:00;;;;;;;18.03;8.77;;;;;;;3.70;100.00;103488.25;5058769;28;20222;-74
2022/03/19 08:22:26;;;;;;;16.13;7.53;;;;;;;3.76;100.00;103490.22;5056276;28;20191;-75
2022/03/19 08:24:53;;;;;;;19.07;8.77;;;;;;;3.81;100.00;103498.22;5042198;28;20291;-75
2022/03/19 08:27:20;;;;;;;15.87;7.03;;;;;;;3.89;100.00;103505.50;5062477;28;20206;-75
2022/03/19 08:29:47;;;;;;;15.57;8.00;;;;;;;4.01;100.00;103505.22;5044251;28;20898;-74
2022/03/19 08:32:13;;;;;;;20.10;8.10;;;;;;;3.98;100.00;103508.50;5060645;28;20205;-75
2022/03/19 08:34:40;;;;;;;13.13;7.23;;;;;;;4.01;100.00;103509.47;5060225;28;20277;-75
2022/03/19 08:37:07;;;;;;;16.70;7.97;;;;;;;4.05;100.00;103503.66;5063611;28;20218;-75
2022/03/19 08:42:18;;;;;;;16.27;8.27;;;;;;;4.24;100.00;103506.28;5058706;28;20596;-74
2022/03/19 08:44:44;;;;;;;18.13;8.67;;;;;;;4.21;100.00;103502.66;5059369;28;20206;-74
2022/03/19 08:47:11;;;;;;;15.97;8.03;;;;;;;4.06;100.00;103505.41;5062343;28;20203;-74
2022/03/19 08:49:37;;;;;;;14.17;7.53;;;;;;;4.14;100.00;103496.31;5060754;28;20229;-74
2022/03/19 08:52:04;;;;;;;13.80;7.17;;;;;;;4.20;100.00;103499.19;5066405;28;20823;-74
2022/03/19 08:54:32;;;;;;;13.80;7.47;;;;;;;4.24;100.00;103495.03;5061784;28;20211;-74
2022/03/19 08:56:58;;;;;;;19.03;7.80;;;;;;;4.17;100.00;103499.06;5061835;28;20200;-74
2022/03/19 08:59:25;;;;;;;17.77;7.63;;;;;;;4.19;100.00;103502.59;5061932;28;20301;-74
2022/03/19 09:01:53;;;;;;;13.37;8.27;;;;;;;4.28;100.00;103499.53;5063431;28;20221;-74
2022/03/19 09:04:20;;;;;;;13.60;7.97;;;;;;;4.13;100.00;103505.78;5058607;28;20461;-74
2022/03/19 09:06:48;;;;;;;16.40;7.63;;;;;;;4.05;100.00;103506.25;5067665;28;20206;-74
2022/03/19 09:09:16;;;;;;;15.40;8.27;;;;;;;4.04;100.00;103507.03;5059807;28;20491;-74
2022/03/19 09:11:44;;;;;;;17.17;7.63;;;;;;;3.95;100.00;103510.06;5061796;28;20197;-75
2022/03/19 09:14:11;;;;;;;15.30;6.90;;;;;;;3.89;100.00;103502.06;5058196;28;20268;-75
2022/03/19 09:16:38;;;;;;;14.43;7.50;;;;;;;3.90;100.00;103496.06;5066468;28;20198;-72
2022/03/19 09:19:04;;;;;;;17.07;8.10;;;;;;;3.88;100.00;103493.41;5063543;28;20309;-71
2022/03/19 09:21:31;;;;;;;14.43;8.33;;;;;;;3.98;100.00;103497.31;5063374;28;20247;-75
2022/03/19 09:23:58;;;;;;;13.30;8.00;;;;;;;4.16;100.00;103489.53;5063373;28;20210;-73
2022/03/19 09:26:26;;;;;;;16.97;7.80;;;;;;;4.35;100.00;103496.44;5064208;28;21892;-73
2022/03/19 09:28:54;;;;;;;16.87;7.90;;;;;;;4.34;99.70;103490.38;5062190;28;20226;-73
2022/03/19 09:31:20;;;;;;;15.63;7.17;;;;;;;4.36;99.61;103488.75;5063818;28;20333;-75
2022/03/19 09:33:48;;;;;;;13.73;7.23;;;;;;;4.31;99.44;103490.25;5059387;28;20194;-75
2022/03/19 09:36:15;;;;;;;16.70;8.23;;;;;;;4.39;99.04;103497.44;5062215;28;20668;-75
2022/03/19 09:38:42;;;;;;;13.60;6.63;;;;;;;4.44;98.90;103486.50;5062183;28;20230;-72
2022/03/19 09:41:08;;;;;;;17.37;7.97;;;;;;;4.47;98.49;103488.34;5064687;28;20218;-74
2022/03/19 09:43:35;;;;;;;16.63;8.47;;;;;;;4.37;98.57;103489.63;5058903;28;20210;-73
2022/03/19 09:46:08;;;;;;;18.70;7.90;;;;;;;4.42;98.73;103482.97;5064683;28;20198;-74
2022/03/19 09:48:35;;;;;;;13.37;7.33;;;;;;;4.62;98.06;103489.00;5057066;28;20226;-74
2022/03/19 09:51:01;;;;;;;16.03;8.13;;;;;;;4.88;97.94;103485.00;5059227;28;20199;-72
2022/03/19 09:53:28;;;;;;;14.47;7.87;;;;;;;4.91;95.98;103489.41;5059242;28;20202;-73
2022/03/19 09:55:56;;;;;;;13.43;6.83;;;;;;;4.91;95.24;103479.97;5043746;28;20209;-75
2022/03/19 09:58:23;;;;;;;14.63;8.00;;;;;;;5.00;95.11;103491.53;5040431;28;20227;-75
2022/03/19 10:00:50;;;;;;;11.70;7.00;;;;;;;4.76;94.50;103489.63;5059026;28;20214;-71
2022/03/19 10:03:22;;;;;;;13.70;7.10;;;;;;;4.79;94.79;103488.91;5055701;28;20270;-75
2022/03/19 10:08:40;;;;;;;14.33;6.60;;;;;;;4.99;94.04;103488.03;5058867;28;20226;-73
2022/03/19 10:11:08;;;;;;;15.10;8.20;;;;;;;5.08;92.31;103492.72;5037312;28;20225;-72
2022/03/19 10:13:37;;;;;;;14.83;7.63;;;;;;;5.18;91.26;103488.81;5059344;28;20203;-73
2022/03/19 10:16:04;;;;;;;17.90;7.87;;;;;;;5.34;89.94;103496.38;5056373;28;20194;-72
2022/03/19 10:18:32;;;;;;;14.03;7.83;;;;;;;5.56;89.30;103485.22;5055515;28;20218;-72
2022/03/19 10:21:01;;;;;;;16.00;8.37;;;;;;;5.55;88.60;103492.94;5056553;28;20222;-72
2022/03/19 10:23:32;;;;;;;13.30;7.80;;;;;;;5.45;88.28;103492.56;5056439;28;20700;-74
2022/03/19 10:25:59;;;;;;;13.30;7.40;;;;;;;5.44;88.70;103492.50;5060607;28;20207;-72
2022/03/19 10:28:30;;;;;;;17.40;8.33;;;;;;;5.31;88.98;103491.97;5057473;28;20238;-74
2022/03/19 10:30:56;;;;;;;16.00;7.73;;;;;;;5.49;89.80;103491.84;5055199;28;20262;-75
2022/03/19 10:33:25;;;;;;;14.83;8.13;;;;;;;5.43;88.57;103481.22;5058013;28;20197;-74
2022/03/19 10:36:06;;;;;;;14.67;8.67;;;;;;;5.59;87.45;103487.03;5061517;28;20209;-74
2022/03/19 10:38:41;;;;;;;18.37;10.10;;;;;;;5.69;87.04;103489.19;5055444;28;20214;-73
2022/03/19 10:41:07;;;;;;;16.17;9.57;;;;;;;5.65;86.12;103482.13;5056485;28;20206;-72
2022/03/19 10:43:34;;;;;;;17.83;9.90;;;;;;;5.79;85.47;103490.44;5058981;28;20566;-74
2022/03/19 10:46:03;;;;;;;16.97;9.43;;;;;;;6.11;84.01;103490.84;5058146;28;20273;-74
2022/03/19 10:48:30;;;;;;;14.20;9.27;;;;;;;6.27;82.06;103489.69;5056569;28;20432;-72
2022/03/19 10:50:58;;;;;;;15.77;10.00;;;;;;;6.41;82.35;103483.31;5063122;28;20193;-73
2022/03/19 10:53:26;;;;;;;15.90;9.43;;;;;;;6.38;77.12;103494.44;5036870;28;20198;-73
2022/03/19 10:55:53;;;;;;;14.60;9.27;;;;;;;6.32;76.25;103496.81;5053875;28;20312;-73
2022/03/19 10:58:20;;;;;;;14.17;8.83;;;;;;;6.30;76.14;103484.63;5055988;28;20226;-74
2022/03/19 11:00:48;;;;;;;14.37;9.00;;;;;;;6.35;76.44;103489.16;5057732;28;20209;-74
2022/03/19 11:03:19;;;;;;;17.13;9.97;;;;;;;6.35;75.41;103489.16;5056368;28;20229;-74
2022/03/19 11:05:47;;;;;;;16.63;10.13;;;;;;;6.32;75.01;103481.28;5064291;28;20234;-72
2022/03/19 11:08:18;;;;;;;13.83;9.07;;;;;;;6.39;76.10;103467.72;5055948;28;20237;-75
2022/03/19 11:10:46;;;;;;;14.60;9.33;;;;;;;6.34;75.55;103465.78;5062961;28;20281;-74
2022/03/19 11:13:16;;;;;;;17.97;10.43;;;;;;;6.48;75.62;103468.88;5060822;28;20190;-73
2022/03/19 11:15:44;;;;;;;18.43;10.80;;;;;;;6.66;74.81;103463.47;5060581;28;20205;-75
2022/03/19 11:18:11;;;;;;;16.70;9.87;;;;;;;6.76;71.03;103462.97;5060655;28;20225;-74
2022/03/19 11:20:37;;;;;;;18.23;10.37;;;;;;;6.82;71.24;103460.56;5060829;28;20198;-71
2022/03/19 11:23:06;;;;;;;17.40;10.57;;;;;;;6.67;70.58;103460.06;5060316;28;20217;-74
2022/03/19 11:25:45;;;;;;;17.70;11.53;;;;;;;6.58;70.88;103448.53;5060361;28;20677;-73
2022/03/19 11:28:14;;;;;;;16.63;11.67;;;;;;;6.75;67.19;103445.63;5048336;28;20226;-74
2022/03/19 11:30:42;;;;;;;15.90;11.17;;;;;;;6.93;64.29;103441.09;5064405;28;20199;-73
2022/03/19 11:33:10;;;;;;;19.47;10.87;;;;;;;7.18;62.29;103445.38;5065446;28;20201;-74
2022/03/19 11:35:39;;;;;;;15.77;10.47;;;;;;;7.19;62.63;103441.97;5065008;28;20994;-74
2022/03/19 11:38:11;;;;;;;20.00;11.93;;;;;;;7.20;62.97;103442.84;5048489;28;20385;-74